Wallace, South Dakota
Current Conditions -  °F | °C
As of 10:53 AM on Thursday 30 Oct 2014 (Local Time) from KATY Reporting Station
Overcast Overcast  
Wind Chill: 35°   Ceiling: 700
Heat Index: 43°   Visibility: 10mi
Dew Point: 41°   Wind: 16mph
Humidity: 93%   Direction: 340°NNW
Pressure: 30.12"   Gusts: NA
Location:  45.09°N, 97.48°W
Report Text: KATY 301553Z AUTO 34014KT 10SM OVC007 06/05 A3012 RMK AO2 SLP209 T00610050
Loading
Personal Weather Stations






























Interactive Weather Map
Tropical Storm Tracking
New forecast layout! Learn more

10-Day Weather Forecast

Advertisements
Track Severe Weather on mobile